createdAt,value
2022-10-16T00:01:42.198Z,7.73
2022-10-16T00:04:10.944Z,7.75
2022-10-16T00:06:39.337Z,7.63
2022-10-16T00:09:07.812Z,7.12
2022-10-16T00:11:39.948Z,6.91
2022-10-16T00:14:12.950Z,7.16
2022-10-16T00:16:42.298Z,6.69
2022-10-16T00:19:13.115Z,6.52
2022-10-16T00:21:42.118Z,6.79
2022-10-16T00:24:11.258Z,6.18
2022-10-16T00:26:39.742Z,6.39
2022-10-16T00:29:08.155Z,6.16
2022-10-16T00:31:36.672Z,5.73
2022-10-16T00:34:05.108Z,5.54
2022-10-16T00:36:33.515Z,5.69
2022-10-16T00:39:03.045Z,6.03
2022-10-16T00:41:32.069Z,6.19
2022-10-16T00:44:05.540Z,6.53
2022-10-16T00:46:37.800Z,6.45
2022-10-16T00:49:10.338Z,6.67
2022-10-16T00:51:44.091Z,6.97
2022-10-16T00:54:20.365Z,6.76
2022-10-16T00:56:48.810Z,6.48
2022-10-16T00:59:21.975Z,6.83
2022-10-16T01:01:50.265Z,6.89
2022-10-16T01:04:20.553Z,6.20
2022-10-16T01:07:10.159Z,5.90
2022-10-16T01:09:49.845Z,6.42
2022-10-16T01:12:32.402Z,5.78
2022-10-16T01:15:03.615Z,5.75
2022-10-16T01:17:49.866Z,5.67
2022-10-16T01:20:39.449Z,6.30
2022-10-16T01:23:11.156Z,6.51
2022-10-16T01:25:53.087Z,5.76
2022-10-16T01:28:23.468Z,5.76
2022-10-16T01:30:52.760Z,5.85
2022-10-16T01:33:22.966Z,6.24
2022-10-16T01:35:56.707Z,6.52
2022-10-16T01:38:27.418Z,6.50
2022-10-16T01:41:06.747Z,6.44
2022-10-16T01:43:42.071Z,6.27
2022-10-16T01:46:11.277Z,5.35
2022-10-16T01:48:39.578Z,5.46
2022-10-16T01:51:14.897Z,5.98
2022-10-16T01:53:44.168Z,6.18
2022-10-16T01:56:13.439Z,6.17
2022-10-16T01:58:55.929Z,5.64
2022-10-16T02:01:24.917Z,5.01
2022-10-16T02:03:54.399Z,4.55
2022-10-16T02:06:23.971Z,5.21
2022-10-16T02:08:52.332Z,4.57
2022-10-16T02:11:20.717Z,4.28
2022-10-16T02:13:54.757Z,4.54
2022-10-16T02:16:27.930Z,4.51
2022-10-16T02:18:56.962Z,4.92
2022-10-16T02:21:27.340Z,4.78
2022-10-16T02:24:00.148Z,4.86
2022-10-16T02:26:37.347Z,4.16
2022-10-16T02:29:09.366Z,3.95
2022-10-16T02:31:39.906Z,4.82
2022-10-16T02:34:08.525Z,5.30
2022-10-16T02:36:36.967Z,5.28
2022-10-16T02:39:05.583Z,5.43
2022-10-16T02:41:34.001Z,5.56
2022-10-16T02:44:02.377Z,5.30
2022-10-16T02:46:30.772Z,5.69
2022-10-16T02:48:59.105Z,5.77
2022-10-16T02:51:28.161Z,5.46
2022-10-16T02:53:56.568Z,5.14
2022-10-16T02:56:25.304Z,5.61
2022-10-16T02:58:53.687Z,5.62
2022-10-16T03:01:22.005Z,5.63
2022-10-16T03:03:51.866Z,5.30
2022-10-16T03:06:20.890Z,4.65
2022-10-16T03:08:49.183Z,4.83
2022-10-16T03:11:17.582Z,4.31
2022-10-16T03:13:46.526Z,4.79
2022-10-16T03:16:14.782Z,5.18
2022-10-16T03:18:43.142Z,4.90
2022-10-16T03:21:11.451Z,4.46
2022-10-16T03:23:39.784Z,4.99
2022-10-16T03:26:08.107Z,5.32
2022-10-16T03:28:36.890Z,5.31
2022-10-16T03:31:05.360Z,5.31
2022-10-16T03:33:34.311Z,5.46
2022-10-16T03:36:03.424Z,5.45
2022-10-16T03:38:31.822Z,5.47
2022-10-16T03:41:00.165Z,5.14
2022-10-16T03:43:28.522Z,4.88
2022-10-16T03:45:56.839Z,4.26
2022-10-16T03:48:25.188Z,4.39
2022-10-16T03:50:53.486Z,4.67
2022-10-16T03:53:23.066Z,4.52
2022-10-16T03:55:51.973Z,3.95
2022-10-16T03:58:21.372Z,4.34
2022-10-16T04:00:49.861Z,3.68
2022-10-16T04:03:20.285Z,4.69
2022-10-16T04:05:48.674Z,4.61
2022-10-16T04:08:17.136Z,4.82
2022-10-16T04:10:46.295Z,4.99
2022-10-16T04:13:14.662Z,4.80
2022-10-16T04:15:43.170Z,4.86
2022-10-16T04:18:11.486Z,5.40
2022-10-16T04:20:39.793Z,5.26
2022-10-16T04:23:08.744Z,5.47
2022-10-16T04:25:37.683Z,5.44
2022-10-16T04:28:06.040Z,5.51
2022-10-16T04:30:35.130Z,5.22
2022-10-16T04:33:03.566Z,5.36
2022-10-16T04:35:31.837Z,5.44
2022-10-16T04:38:00.810Z,5.45
2022-10-16T04:40:29.288Z,5.48
2022-10-16T04:42:57.754Z,5.49
2022-10-16T04:45:26.429Z,5.39
2022-10-16T04:47:58.372Z,5.43
2022-10-16T04:50:26.816Z,5.42
2022-10-16T04:53:08.078Z,5.31
2022-10-16T04:55:37.460Z,5.11
2022-10-16T04:58:06.078Z,5.29
2022-10-16T05:00:34.806Z,5.41
2022-10-16T05:03:07.239Z,4.67
2022-10-16T05:05:36.525Z,5.09
2022-10-16T05:08:05.583Z,5.35
2022-10-16T05:10:33.996Z,5.42
2022-10-16T05:13:02.403Z,5.46
2022-10-16T05:15:30.817Z,5.44
2022-10-16T05:18:00.456Z,5.05
2022-10-16T05:20:28.970Z,5.27
2022-10-16T05:22:57.416Z,5.67
2022-10-16T05:25:25.789Z,5.12
2022-10-16T05:27:54.747Z,5.05
2022-10-16T05:30:23.160Z,5.41
2022-10-16T05:32:51.834Z,5.78
2022-10-16T05:35:20.698Z,5.67
2022-10-16T05:37:49.160Z,5.17
2022-10-16T05:40:18.331Z,5.64
2022-10-16T05:42:50.473Z,5.57
2022-10-16T05:45:19.515Z,5.85
2022-10-16T05:47:48.001Z,5.44
2022-10-16T05:50:16.892Z,5.96
2022-10-16T05:52:45.858Z,6.23
2022-10-16T05:55:14.422Z,6.12
2022-10-16T05:57:43.749Z,6.23
2022-10-16T06:00:14.562Z,6.29
2022-10-16T06:02:44.088Z,6.15
2022-10-16T06:05:12.645Z,6.23
2022-10-16T06:07:41.252Z,6.34
2022-10-16T06:10:10.302Z,6.33
2022-10-16T06:12:38.986Z,6.47
2022-10-16T06:15:08.852Z,6.58
2022-10-16T06:17:37.134Z,6.20
2022-10-16T06:20:05.914Z,6.45
2022-10-16T06:22:34.420Z,6.39
2022-10-16T06:25:03.528Z,6.10
2022-10-16T06:27:33.136Z,6.32
2022-10-16T06:30:02.702Z,6.66
2022-10-16T06:32:31.691Z,6.89
2022-10-16T06:35:00.133Z,6.71
2022-10-16T06:37:29.054Z,6.90
2022-10-16T06:39:57.826Z,6.53
2022-10-16T06:42:26.728Z,6.80
2022-10-16T06:44:55.824Z,6.70
2022-10-16T06:47:25.037Z,6.87
2022-10-16T06:49:54.575Z,7.07
2022-10-16T06:52:23.129Z,7.07
2022-10-16T06:54:51.639Z,6.79
2022-10-16T06:57:19.986Z,7.05
2022-10-16T06:59:54.535Z,7.30
2022-10-16T07:02:29.471Z,6.65
2022-10-16T07:04:59.958Z,7.30
2022-10-16T07:07:30.439Z,7.45
2022-10-16T07:09:59.707Z,7.42
2022-10-16T07:12:28.763Z,7.59
2022-10-16T07:14:58.874Z,7.28
2022-10-16T07:17:30.464Z,7.50
2022-10-16T07:20:05.733Z,7.65
2022-10-16T07:22:36.993Z,7.73
2022-10-16T07:25:06.282Z,7.43
2022-10-16T07:30:13.553Z,7.70
2022-10-16T07:32:45.153Z,7.80
2022-10-16T07:35:15.503Z,8.04
2022-10-16T07:37:53.866Z,8.46
2022-10-16T07:40:26.186Z,8.71
2022-10-16T07:42:55.568Z,9.37
2022-10-16T07:45:24.317Z,10.24
2022-10-16T07:47:56.211Z,11.39
2022-10-16T07:50:25.231Z,11.89
2022-10-16T07:53:02.323Z,12.78
2022-10-16T07:55:30.658Z,13.51
2022-10-16T07:57:59.891Z,14.00
2022-10-16T08:00:29.297Z,14.25
2022-10-16T08:03:04.421Z,14.55
2022-10-16T08:05:33.464Z,14.90
2022-10-16T08:08:03.971Z,15.44
2022-10-16T08:10:32.985Z,15.86
2022-10-16T08:13:01.500Z,15.70
2022-10-16T08:15:30.226Z,15.89
2022-10-16T08:18:00.311Z,15.46
2022-10-16T08:20:29.520Z,14.13
2022-10-16T08:23:00.783Z,14.34
2022-10-16T08:25:31.100Z,13.93
2022-10-16T08:28:00.299Z,13.42
2022-10-16T08:30:28.836Z,13.39
2022-10-16T08:32:59.442Z,13.19
2022-10-16T08:35:28.979Z,13.23
2022-10-16T08:37:57.382Z,13.11
2022-10-16T08:40:33.481Z,12.73
2022-10-16T08:43:29.538Z,12.55
2022-10-16T08:46:24.290Z,12.09
2022-10-16T08:48:57.272Z,11.79
2022-10-16T08:51:33.779Z,11.76
2022-10-16T08:54:07.562Z,11.82
2022-10-16T08:56:35.982Z,12.07
2022-10-16T08:59:05.675Z,12.00
2022-10-16T09:01:40.597Z,12.00
2022-10-16T09:04:22.240Z,12.69
2022-10-16T09:07:02.274Z,12.67
2022-10-16T09:10:04.360Z,12.92
2022-10-16T09:12:47.149Z,12.30
2022-10-16T09:15:37.072Z,12.71
2022-10-16T09:18:16.553Z,13.83
2022-10-16T09:21:06.640Z,13.61
2022-10-16T09:23:36.818Z,13.99
2022-10-16T09:26:10.888Z,13.69
2022-10-16T09:28:39.748Z,13.55
2022-10-16T09:31:16.521Z,13.83
2022-10-16T09:33:44.994Z,13.55
2022-10-16T09:36:13.584Z,13.26
2022-10-16T09:38:42.135Z,14.09
2022-10-16T09:41:20.135Z,14.48
2022-10-16T09:43:56.800Z,14.00
2022-10-16T09:46:36.771Z,14.73
2022-10-16T09:49:27.602Z,14.34
2022-10-16T09:52:19.151Z,14.60
2022-10-16T09:55:01.564Z,13.91
2022-10-16T09:57:31.369Z,14.37
2022-10-16T10:00:13.347Z,13.90
2022-10-16T10:02:41.840Z,14.58
2022-10-16T10:05:24.158Z,15.15
2022-10-16T10:08:09.650Z,15.23
2022-10-16T10:10:43.351Z,16.04
2022-10-16T10:13:21.670Z,15.13
2022-10-16T10:15:50.051Z,14.59
2022-10-16T10:18:24.870Z,14.91
2022-10-16T10:23:33.500Z,15.08
2022-10-16T10:26:20.331Z,15.39
2022-10-16T10:29:00.652Z,15.92
2022-10-16T10:31:31.279Z,16.30
2022-10-16T10:34:12.664Z,15.77
2022-10-16T10:36:43.069Z,16.22
2022-10-16T10:42:00.586Z,16.20
2022-10-16T10:44:32.417Z,16.55
2022-10-16T10:47:14.267Z,16.90
2022-10-16T10:49:48.938Z,16.54
2022-10-16T10:52:35.856Z,16.61
2022-10-16T10:55:43.216Z,15.91
2022-10-16T10:58:45.914Z,16.94
2022-10-16T11:01:43.087Z,16.85
2022-10-16T11:04:21.384Z,16.33
2022-10-16T11:07:17.034Z,16.63
2022-10-16T11:09:57.882Z,16.31
2022-10-16T11:12:40.716Z,16.88
2022-10-16T11:15:23.422Z,16.81
2022-10-16T11:18:01.753Z,17.06
2022-10-16T11:20:33.472Z,16.80
2022-10-16T11:23:14.387Z,16.87
2022-10-16T11:25:43.793Z,15.99
2022-10-16T11:28:28.031Z,16.80
2022-10-16T11:31:20.142Z,17.17
2022-10-16T11:34:04.251Z,16.66
2022-10-16T11:37:11.984Z,16.46
2022-10-16T11:39:40.779Z,16.71
2022-10-16T11:42:20.559Z,17.09
2022-10-16T11:45:09.109Z,17.23
2022-10-16T11:47:59.141Z,17.77
2022-10-16T11:50:46.868Z,17.56
2022-10-16T11:53:54.123Z,17.50
2022-10-16T11:56:23.681Z,17.86
2022-10-16T11:59:03.984Z,17.50
2022-10-16T12:02:10.380Z,17.98
2022-10-16T12:04:46.772Z,17.90
2022-10-16T12:07:34.470Z,17.65
2022-10-16T12:13:36.966Z,17.80
2022-10-16T12:16:32.078Z,17.14
2022-10-16T12:19:18.544Z,16.82
2022-10-16T12:21:49.922Z,16.70
2022-10-16T12:24:43.624Z,16.84
2022-10-16T12:27:31.041Z,17.10
2022-10-16T12:30:05.042Z,16.90
2022-10-16T12:32:46.763Z,16.75
2022-10-16T12:35:24.542Z,16.30
2022-10-16T12:37:53.231Z,16.30
2022-10-16T12:40:33.235Z,16.02
2022-10-16T12:43:30.711Z,16.77
2022-10-16T12:46:24.591Z,16.29
2022-10-16T12:49:06.564Z,15.96
2022-10-16T12:51:47.521Z,16.43
2022-10-16T12:54:26.853Z,16.99
2022-10-16T12:57:36.754Z,16.32
2022-10-16T13:00:47.323Z,16.75
2022-10-16T13:03:43.425Z,16.82
2022-10-16T13:06:34.296Z,16.78
2022-10-16T13:09:21.110Z,16.96
2022-10-16T13:12:21.841Z,15.77
2022-10-16T13:15:02.428Z,15.49
2022-10-16T13:17:55.075Z,15.85
2022-10-16T13:20:45.030Z,16.50
2022-10-16T13:23:31.494Z,15.84
2022-10-16T13:26:18.616Z,15.92
2022-10-16T13:28:47.271Z,15.58
2022-10-16T13:31:25.691Z,15.86
2022-10-16T13:33:56.954Z,16.01
2022-10-16T13:36:30.234Z,14.94
2022-10-16T13:39:31.635Z,15.28
2022-10-16T13:42:11.098Z,16.31
2022-10-16T13:44:49.501Z,15.60
2022-10-16T13:47:24.798Z,15.21
2022-10-16T13:50:04.782Z,15.72
2022-10-16T13:52:34.624Z,15.76
2022-10-16T13:55:03.589Z,15.94
2022-10-16T13:57:38.463Z,15.64
2022-10-16T14:00:31.700Z,16.06
2022-10-16T14:03:08.731Z,15.78
2022-10-16T14:05:49.662Z,15.97
2022-10-16T14:08:18.205Z,15.90
2022-10-16T14:10:52.538Z,16.47
2022-10-16T14:13:24.870Z,15.89
2022-10-16T14:16:00.318Z,15.28
2022-10-16T14:18:33.612Z,15.77
2022-10-16T14:21:10.114Z,16.04
2022-10-16T14:23:39.688Z,16.15
2022-10-16T14:26:17.518Z,15.74
2022-10-16T14:28:47.231Z,15.58
2022-10-16T14:31:34.891Z,16.18
2022-10-16T14:34:05.462Z,15.83
2022-10-16T14:36:34.939Z,15.63
2022-10-16T14:39:06.519Z,16.00
2022-10-16T14:41:43.994Z,15.64
2022-10-16T14:44:12.755Z,16.15
2022-10-16T14:46:42.343Z,15.61
2022-10-16T14:49:16.040Z,15.74
2022-10-16T14:51:47.095Z,15.77
2022-10-16T14:54:17.362Z,15.43
2022-10-16T14:56:56.670Z,15.44
2022-10-16T14:59:59.566Z,15.95
2022-10-16T15:02:35.577Z,15.89
2022-10-16T15:05:20.207Z,16.01
2022-10-16T15:07:48.897Z,16.27
2022-10-16T15:10:21.036Z,16.12
2022-10-16T15:12:49.709Z,16.07
2022-10-16T15:15:37.183Z,16.12
2022-10-16T15:18:10.221Z,15.98
2022-10-16T15:20:47.151Z,15.70
2022-10-16T15:23:18.712Z,15.78
2022-10-16T15:25:48.983Z,15.50
2022-10-16T15:28:18.914Z,15.57
2022-10-16T15:30:50.475Z,15.47
2022-10-16T15:33:24.841Z,15.36
2022-10-16T15:35:55.065Z,15.34
2022-10-16T15:38:24.706Z,14.66
2022-10-16T15:40:53.410Z,14.57
2022-10-16T15:43:22.595Z,14.44
2022-10-16T15:46:03.771Z,14.05
2022-10-16T15:48:32.892Z,13.91
2022-10-16T15:51:02.152Z,14.48
2022-10-16T15:53:30.772Z,14.52
2022-10-16T15:55:59.156Z,14.39
2022-10-16T15:58:31.010Z,14.44
2022-10-16T16:01:02.455Z,14.24
2022-10-16T16:03:33.538Z,13.97
2022-10-16T16:06:10.258Z,13.86
2022-10-16T16:09:09.389Z,13.59
2022-10-16T16:11:40.079Z,13.58
2022-10-16T16:14:12.283Z,13.40
2022-10-16T16:16:53.236Z,13.56
2022-10-16T16:19:23.332Z,13.74
2022-10-16T16:21:55.416Z,13.15
2022-10-16T16:24:24.863Z,13.09
2022-10-16T16:26:53.675Z,12.75
2022-10-16T16:29:23.607Z,13.14
2022-10-16T16:31:58.567Z,13.05
2022-10-16T16:34:30.899Z,13.01
2022-10-16T16:37:01.596Z,13.15
2022-10-16T16:39:32.027Z,13.12
2022-10-16T16:42:07.228Z,12.87
2022-10-16T16:44:41.724Z,12.64
2022-10-16T16:47:22.998Z,11.90
2022-10-16T16:50:07.968Z,12.21
2022-10-16T16:52:37.144Z,12.40
2022-10-16T16:55:09.015Z,12.51
2022-10-16T16:57:38.915Z,12.29
2022-10-16T17:00:11.881Z,11.86
2022-10-16T17:02:44.566Z,11.67
2022-10-16T17:05:14.594Z,11.75
2022-10-16T17:07:47.425Z,11.76
2022-10-16T17:10:16.194Z,11.66
2022-10-16T17:12:49.292Z,11.58
2022-10-16T17:15:19.545Z,11.67
2022-10-16T17:17:54.596Z,10.80
2022-10-16T17:20:24.155Z,10.81
2022-10-16T17:22:52.682Z,10.11
2022-10-16T17:25:24.941Z,10.78
2022-10-16T17:27:56.294Z,10.69
2022-10-16T17:30:29.240Z,11.10
2022-10-16T17:33:00.941Z,10.04
2022-10-16T17:38:42.256Z,9.56
2022-10-16T17:41:30.941Z,9.68
2022-10-16T17:44:04.630Z,9.21
2022-10-16T17:46:38.406Z,9.61
2022-10-16T17:49:29.847Z,8.97
2022-10-16T17:52:12.523Z,9.84
2022-10-16T17:54:59.081Z,9.88
2022-10-16T17:57:30.808Z,9.60
2022-10-16T18:00:04.074Z,9.76
2022-10-16T18:02:33.075Z,10.01
2022-10-16T18:05:09.704Z,9.83
2022-10-16T18:07:42.949Z,9.88
2022-10-16T18:10:18.741Z,10.20
2022-10-16T18:12:51.133Z,10.03
2022-10-16T18:15:20.017Z,9.43
2022-10-16T18:21:07.944Z,9.94
2022-10-16T18:24:05.826Z,9.68
2022-10-16T18:26:52.106Z,9.04
2022-10-16T18:29:23.722Z,9.79
2022-10-16T18:31:58.729Z,9.27
2022-10-16T18:34:49.724Z,9.00
2022-10-16T18:37:23.326Z,8.56
2022-10-16T18:40:08.806Z,8.85
2022-10-16T18:43:03.193Z,8.74
2022-10-16T18:45:39.599Z,8.56
2022-10-16T18:48:10.924Z,8.42
2022-10-16T18:50:42.785Z,8.53
2022-10-16T18:53:12.868Z,8.61
2022-10-16T18:55:44.232Z,8.22
2022-10-16T18:58:19.469Z,8.16
2022-10-16T19:00:49.988Z,8.52
2022-10-16T19:03:20.212Z,8.85
2022-10-16T19:05:50.550Z,8.77
2022-10-16T19:08:25.129Z,8.63
2022-10-16T19:11:24.368Z,8.81
2022-10-16T19:13:55.403Z,8.56
2022-10-16T19:16:35.840Z,8.59
2022-10-16T19:19:07.902Z,8.26
2022-10-16T19:21:41.868Z,8.57
2022-10-16T19:24:16.707Z,8.31
2022-10-16T19:26:47.749Z,8.22
2022-10-16T19:29:22.320Z,8.37
2022-10-16T19:31:54.325Z,8.51
2022-10-16T19:34:30.349Z,8.48
2022-10-16T19:37:00.165Z,8.67
2022-10-16T19:39:33.950Z,8.53
2022-10-16T19:42:04.891Z,8.63
2022-10-16T19:44:37.649Z,8.59
2022-10-16T19:47:10.269Z,8.47
2022-10-16T19:49:40.157Z,8.38
2022-10-16T19:52:09.747Z,8.40
2022-10-16T19:54:39.358Z,8.50
2022-10-16T19:57:10.052Z,8.19
2022-10-16T19:59:41.890Z,8.51
2022-10-16T20:02:16.950Z,8.40
2022-10-16T20:04:45.673Z,8.60
2022-10-16T20:07:14.099Z,8.69
2022-10-16T20:09:44.839Z,8.46
2022-10-16T20:12:13.418Z,8.18
2022-10-16T20:14:44.290Z,7.84
2022-10-16T20:17:14.968Z,8.01
2022-10-16T20:19:43.438Z,8.25
2022-10-16T20:22:13.102Z,7.97
2022-10-16T20:24:41.510Z,7.79
2022-10-16T20:27:11.051Z,7.67
2022-10-16T20:29:39.809Z,7.75
2022-10-16T20:32:08.249Z,7.83
2022-10-16T20:37:12.172Z,7.73
2022-10-16T20:39:41.410Z,7.74
2022-10-16T20:42:11.455Z,7.82
2022-10-16T20:44:40.268Z,8.01
2022-10-16T20:47:09.238Z,7.83
2022-10-16T20:49:40.694Z,7.73
2022-10-16T20:52:09.553Z,7.53
2022-10-16T20:54:38.112Z,6.68
2022-10-16T20:57:06.651Z,6.81
2022-10-16T20:59:35.197Z,6.55
2022-10-16T21:02:06.193Z,6.42
2022-10-16T21:04:35.653Z,6.57
2022-10-16T21:07:04.222Z,6.05
2022-10-16T21:09:34.267Z,6.01
2022-10-16T21:12:02.684Z,6.23
2022-10-16T21:14:31.176Z,6.72
2022-10-16T21:17:00.270Z,6.38
2022-10-16T21:19:33.476Z,6.59
2022-10-16T21:22:01.804Z,5.50
2022-10-16T21:24:30.671Z,5.59
2022-10-16T21:26:59.168Z,6.02
2022-10-16T21:29:27.519Z,5.87
2022-10-16T21:31:55.937Z,5.95
2022-10-16T21:34:24.339Z,5.78
2022-10-16T21:36:52.659Z,5.58
2022-10-16T21:39:21.313Z,5.58
2022-10-16T21:41:50.828Z,5.44
2022-10-16T21:44:20.470Z,5.60
2022-10-16T21:46:49.337Z,6.10
2022-10-16T21:49:19.593Z,6.32
2022-10-16T21:51:49.645Z,5.73
2022-10-16T21:54:21.062Z,5.81
2022-10-16T21:56:49.555Z,6.19
2022-10-16T21:59:18.418Z,5.51
2022-10-16T22:01:46.996Z,6.00
2022-10-16T22:04:16.669Z,6.29
2022-10-16T22:06:45.104Z,6.53
2022-10-16T22:09:15.532Z,6.36
2022-10-16T22:11:44.448Z,6.48
2022-10-16T22:14:17.298Z,6.06
2022-10-16T22:16:46.671Z,6.20
2022-10-16T22:19:17.267Z,5.43
2022-10-16T22:21:48.702Z,5.18
2022-10-16T22:24:19.658Z,5.62
2022-10-16T22:26:48.908Z,5.81
2022-10-16T22:29:17.823Z,5.52
2022-10-16T22:31:46.414Z,4.51
2022-10-16T22:34:15.036Z,5.03
2022-10-16T22:36:43.532Z,5.39
2022-10-16T22:39:11.960Z,4.89
2022-10-16T22:41:41.403Z,4.49
2022-10-16T22:44:12.517Z,4.90
2022-10-16T22:46:41.061Z,4.93
2022-10-16T22:49:09.413Z,4.92
2022-10-16T22:51:37.838Z,5.06
2022-10-16T22:54:06.280Z,5.58
2022-10-16T22:56:34.605Z,5.37
2022-10-16T22:59:03.478Z,5.49
2022-10-16T23:01:37.156Z,5.48
2022-10-16T23:04:05.846Z,5.01
2022-10-16T23:06:34.655Z,4.43
2022-10-16T23:09:03.804Z,5.07
2022-10-16T23:11:32.250Z,4.47
2022-10-16T23:14:00.576Z,3.98
2022-10-16T23:16:28.918Z,4.09
2022-10-16T23:18:57.861Z,3.90
2022-10-16T23:21:26.302Z,4.15
2022-10-16T23:23:55.095Z,3.96
2022-10-16T23:26:26.272Z,3.61
2022-10-16T23:28:56.607Z,3.71
2022-10-16T23:31:26.107Z,3.81
2022-10-16T23:33:56.275Z,4.55
2022-10-16T23:36:25.210Z,4.39
2022-10-16T23:38:54.263Z,4.25
2022-10-16T23:41:22.599Z,4.55
2022-10-16T23:43:51.741Z,4.76
2022-10-16T23:46:21.235Z,4.98
2022-10-16T23:48:50.768Z,5.07
2022-10-16T23:51:19.411Z,5.19
2022-10-16T23:53:47.831Z,5.13
2022-10-16T23:56:16.293Z,5.29
2022-10-16T23:58:45.530Z,5.31
